sensor_id;sensor_type;location;lat;lon;timestamp;P1;durP1;ratioP1;P2;durP2;ratioP2
3667;SDS011;24099;47.102;15.440;2023-05-07T00:02:03;2.47;;;2.10;;
3667;SDS011;24099;47.102;15.440;2023-05-07T00:04:31;4.40;;;2.83;;
3667;SDS011;24099;47.102;15.440;2023-05-07T00:07:02;4.72;;;3.60;;
3667;SDS011;24099;47.102;15.440;2023-05-07T00:09:31;4.75;;;3.20;;
3667;SDS011;24099;47.102;15.440;2023-05-07T00:12:02;2.22;;;2.03;;
3667;SDS011;24099;47.102;15.440;2023-05-07T00:14:30;3.05;;;2.53;;
3667;SDS011;24099;47.102;15.440;2023-05-07T00:16:59;1.95;;;1.80;;
3667;SDS011;24099;47.102;15.440;2023-05-07T00:19:34;3.97;;;2.28;;
3667;SDS011;24099;47.102;15.440;2023-05-07T00:22:02;1.67;;;1.58;;
3667;SDS011;24099;47.102;15.440;2023-05-07T00:24:32;2.92;;;1.90;;
3667;SDS011;24099;47.102;15.440;2023-05-07T00:27:05;1.70;;;1.42;;
3667;SDS011;24099;47.102;15.440;2023-05-07T00:29:33;1.92;;;1.67;;
3667;SDS011;24099;47.102;15.440;2023-05-07T00:32:03;3.58;;;2.30;;
3667;SDS011;24099;47.102;15.440;2023-05-07T00:34:31;2.13;;;1.90;;
3667;SDS011;24099;47.102;15.440;2023-05-07T00:36:59;3.22;;;2.25;;
3667;SDS011;24099;47.102;15.440;2023-05-07T00:39:30;2.08;;;1.77;;
3667;SDS011;24099;47.102;15.440;2023-05-07T00:41:58;3.20;;;2.15;;
3667;SDS011;24099;47.102;15.440;2023-05-07T00:44:26;3.60;;;2.10;;
3667;SDS011;24099;47.102;15.440;2023-05-07T00:46:55;8.30;;;2.05;;
3667;SDS011;24099;47.102;15.440;2023-05-07T00:49:30;2.40;;;1.75;;
3667;SDS011;24099;47.102;15.440;2023-05-07T00:52:04;2.67;;;1.77;;
3667;SDS011;24099;47.102;15.440;2023-05-07T00:54:32;2.03;;;1.58;;
3667;SDS011;24099;47.102;15.440;2023-05-07T00:57:21;1.70;;;1.60;;
3667;SDS011;24099;47.102;15.440;2023-05-07T00:59:52;2.88;;;1.98;;
3667;SDS011;24099;47.102;15.440;2023-05-07T01:02:20;3.40;;;2.20;;
3667;SDS011;24099;47.102;15.440;2023-05-07T01:04:49;1.98;;;1.63;;
3667;SDS011;24099;47.102;15.440;2023-05-07T01:07:18;5.28;;;1.80;;
3667;SDS011;24099;47.102;15.440;2023-05-07T01:09:48;2.15;;;1.95;;
3667;SDS011;24099;47.102;15.440;2023-05-07T01:12:16;2.95;;;1.80;;
3667;SDS011;24099;47.102;15.440;2023-05-07T01:14:44;1.70;;;1.60;;
3667;SDS011;24099;47.102;15.440;2023-05-07T01:17:14;4.20;;;1.88;;
3667;SDS011;24099;47.102;15.440;2023-05-07T01:19:41;3.20;;;2.30;;
3667;SDS011;24099;47.102;15.440;2023-05-07T01:22:14;2.03;;;1.83;;
3667;SDS011;24099;47.102;15.440;2023-05-07T01:24:55;2.25;;;1.88;;
3667;SDS011;24099;47.102;15.440;2023-05-07T01:27:26;2.25;;;1.83;;
3667;SDS011;24099;47.102;15.440;2023-05-07T01:29:55;2.40;;;2.03;;
3667;SDS011;24099;47.102;15.440;2023-05-07T01:32:26;2.67;;;1.65;;
3667;SDS011;24099;47.102;15.440;2023-05-07T01:34:59;2.25;;;1.80;;
3667;SDS011;24099;47.102;15.440;2023-05-07T01:37:30;3.65;;;1.95;;
3667;SDS011;24099;47.102;15.440;2023-05-07T01:39:59;2.08;;;1.83;;
3667;SDS011;24099;47.102;15.440;2023-05-07T01:42:27;2.40;;;1.63;;
3667;SDS011;24099;47.102;15.440;2023-05-07T01:44:59;2.97;;;2.03;;
3667;SDS011;24099;47.102;15.440;2023-05-07T01:47:30;1.70;;;1.60;;
3667;SDS011;24099;47.102;15.440;2023-05-07T01:50:00;2.28;;;1.73;;
3667;SDS011;24099;47.102;15.440;2023-05-07T01:52:28;1.92;;;1.65;;
3667;SDS011;24099;47.102;15.440;2023-05-07T01:54:57;1.70;;;1.50;;
3667;SDS011;24099;47.102;15.440;2023-05-07T01:57:29;1.92;;;1.35;;
3667;SDS011;24099;47.102;15.440;2023-05-07T02:00:00;2.72;;;1.40;;
3667;SDS011;24099;47.102;15.440;2023-05-07T02:02:40;2.00;;;1.73;;
3667;SDS011;24099;47.102;15.440;2023-05-07T02:05:18;1.98;;;1.67;;
3667;SDS011;24099;47.102;15.440;2023-05-07T02:07:55;2.83;;;1.83;;
3667;SDS011;24099;47.102;15.440;2023-05-07T02:10:24;2.50;;;1.60;;
3667;SDS011;24099;47.102;15.440;2023-05-07T02:12:53;2.67;;;1.80;;
3667;SDS011;24099;47.102;15.440;2023-05-07T02:15:20;2.33;;;1.60;;
3667;SDS011;24099;47.102;15.440;2023-05-07T02:17:58;3.50;;;1.70;;
3667;SDS011;24099;47.102;15.440;2023-05-07T02:20:30;4.75;;;1.63;;
3667;SDS011;24099;47.102;15.440;2023-05-07T02:23:00;2.33;;;1.67;;
3667;SDS011;24099;47.102;15.440;2023-05-07T02:25:29;2.70;;;1.77;;
3667;SDS011;24099;47.102;15.440;2023-05-07T02:27:57;2.55;;;1.77;;
3667;SDS011;24099;47.102;15.440;2023-05-07T02:30:44;2.58;;;1.60;;
3667;SDS011;24099;47.102;15.440;2023-05-07T02:33:15;2.83;;;1.50;;
3667;SDS011;24099;47.102;15.440;2023-05-07T02:35:43;1.92;;;1.77;;
3667;SDS011;24099;47.102;15.440;2023-05-07T02:38:14;9.93;;;1.80;;
3667;SDS011;24099;47.102;15.440;2023-05-07T02:40:43;2.10;;;1.90;;
3667;SDS011;24099;47.102;15.440;2023-05-07T02:43:13;1.95;;;1.50;;
3667;SDS011;24099;47.102;15.440;2023-05-07T02:45:48;2.50;;;1.50;;
3667;SDS011;24099;47.102;15.440;2023-05-07T02:48:16;1.73;;;1.63;;
3667;SDS011;24099;47.102;15.440;2023-05-07T02:50:45;2.47;;;1.48;;
3667;SDS011;24099;47.102;15.440;2023-05-07T02:53:15;1.33;;;1.23;;
3667;SDS011;24099;47.102;15.440;2023-05-07T02:55:43;3.80;;;1.42;;
3667;SDS011;24099;47.102;15.440;2023-05-07T02:58:14;1.90;;;1.50;;
3667;SDS011;24099;47.102;15.440;2023-05-07T03:00:46;1.85;;;1.58;;
3667;SDS011;24099;47.102;15.440;2023-05-07T03:03:25;1.88;;;1.63;;
3667;SDS011;24099;47.102;15.440;2023-05-07T03:05:53;2.38;;;1.73;;
3667;SDS011;24099;47.102;15.440;2023-05-07T03:08:23;1.40;;;1.17;;
3667;SDS011;24099;47.102;15.440;2023-05-07T03:10:51;3.42;;;1.88;;
3667;SDS011;24099;47.102;15.440;2023-05-07T03:13:19;2.03;;;1.83;;
3667;SDS011;24099;47.102;15.440;2023-05-07T03:15:48;2.03;;;1.85;;
3667;SDS011;24099;47.102;15.440;2023-05-07T03:18:18;2.08;;;1.48;;
3667;SDS011;24099;47.102;15.440;2023-05-07T03:20:48;2.03;;;1.55;;
3667;SDS011;24099;47.102;15.440;2023-05-07T03:23:17;1.75;;;1.35;;
3667;SDS011;24099;47.102;15.440;2023-05-07T03:25:46;13.05;;;1.92;;
3667;SDS011;24099;47.102;15.440;2023-05-07T03:28:14;2.97;;;1.98;;
3667;SDS011;24099;47.102;15.440;2023-05-07T03:30:47;1.67;;;1.33;;
3667;SDS011;24099;47.102;15.440;2023-05-07T03:33:15;1.77;;;1.50;;
3667;SDS011;24099;47.102;15.440;2023-05-07T03:35:44;2.35;;;1.55;;
3667;SDS011;24099;47.102;15.440;2023-05-07T03:38:17;1.40;;;1.30;;
3667;SDS011;24099;47.102;15.440;2023-05-07T03:40:46;2.00;;;1.33;;
3667;SDS011;24099;47.102;15.440;2023-05-07T03:43:14;2.30;;;2.00;;
3667;SDS011;24099;47.102;15.440;2023-05-07T03:45:46;1.73;;;1.55;;
3667;SDS011;24099;47.102;15.440;2023-05-07T03:48:20;2.85;;;1.75;;
3667;SDS011;24099;47.102;15.440;2023-05-07T03:50:53;1.13;;;1.13;;
3667;SDS011;24099;47.102;15.440;2023-05-07T03:53:24;1.70;;;1.50;;
3667;SDS011;24099;47.102;15.440;2023-05-07T03:55:52;2.53;;;1.50;;
3667;SDS011;24099;47.102;15.440;2023-05-07T03:58:20;1.85;;;1.60;;
3667;SDS011;24099;47.102;15.440;2023-05-07T04:00:49;1.30;;;1.20;;
3667;SDS011;24099;47.102;15.440;2023-05-07T04:03:22;1.80;;;1.30;;
3667;SDS011;24099;47.102;15.440;2023-05-07T04:05:51;2.15;;;1.60;;
3667;SDS011;24099;47.102;15.440;2023-05-07T04:08:19;8.13;;;1.75;;
3667;SDS011;24099;47.102;15.440;2023-05-07T04:10:55;2.72;;;1.92;;
3667;SDS011;24099;47.102;15.440;2023-05-07T04:13:26;1.80;;;1.48;;
3667;SDS011;24099;47.102;15.440;2023-05-07T04:15:55;1.50;;;1.40;;
3667;SDS011;24099;47.102;15.440;2023-05-07T04:18:23;1.67;;;1.40;;
3667;SDS011;24099;47.102;15.440;2023-05-07T04:20:51;1.88;;;1.40;;
3667;SDS011;24099;47.102;15.440;2023-05-07T04:23:20;1.60;;;1.50;;
3667;SDS011;24099;47.102;15.440;2023-05-07T04:25:48;1.10;;;1.05;;
3667;SDS011;24099;47.102;15.440;2023-05-07T04:28:25;1.60;;;1.27;;
3667;SDS011;24099;47.102;15.440;2023-05-07T04:30:53;1.80;;;1.40;;
3667;SDS011;24099;47.102;15.440;2023-05-07T04:33:21;2.22;;;1.42;;
3667;SDS011;24099;47.102;15.440;2023-05-07T04:35:49;1.42;;;1.20;;
3667;SDS011;24099;47.102;15.440;2023-05-07T04:38:17;1.50;;;1.40;;
3667;SDS011;24099;47.102;15.440;2023-05-07T04:40:48;1.50;;;1.40;;
3667;SDS011;24099;47.102;15.440;2023-05-07T04:43:20;2.88;;;1.42;;
3667;SDS011;24099;47.102;15.440;2023-05-07T04:45:51;2.35;;;1.50;;
3667;SDS011;24099;47.102;15.440;2023-05-07T04:48:21;2.60;;;1.67;;
3667;SDS011;24099;47.102;15.440;2023-05-07T04:50:51;2.55;;;1.85;;
3667;SDS011;24099;47.102;15.440;2023-05-07T04:53:20;1.40;;;1.30;;
3667;SDS011;24099;47.102;15.440;2023-05-07T04:55:54;1.33;;;1.23;;
3667;SDS011;24099;47.102;15.440;2023-05-07T04:58:24;2.15;;;1.63;;
3667;SDS011;24099;47.102;15.440;2023-05-07T05:00:55;2.30;;;1.50;;
3667;SDS011;24099;47.102;15.440;2023-05-07T05:03:23;2.28;;;1.45;;
3667;SDS011;24099;47.102;15.440;2023-05-07T05:05:50;1.73;;;1.40;;
3667;SDS011;24099;47.102;15.440;2023-05-07T05:08:21;1.80;;;1.45;;
3667;SDS011;24099;47.102;15.440;2023-05-07T05:10:50;1.85;;;1.55;;
3667;SDS011;24099;47.102;15.440;2023-05-07T05:13:18;3.30;;;1.58;;
3667;SDS011;24099;47.102;15.440;2023-05-07T05:15:46;3.08;;;1.65;;
3667;SDS011;24099;47.102;15.440;2023-05-07T05:18:16;1.60;;;1.50;;
3667;SDS011;24099;47.102;15.440;2023-05-07T05:20:44;1.92;;;1.73;;
3667;SDS011;24099;47.102;15.440;2023-05-07T05:23:12;1.98;;;1.55;;
3667;SDS011;24099;47.102;15.440;2023-05-07T05:25:39;1.60;;;1.50;;
3667;SDS011;24099;47.102;15.440;2023-05-07T05:28:10;1.58;;;1.48;;
3667;SDS011;24099;47.102;15.440;2023-05-07T05:30:38;2.15;;;1.55;;
3667;SDS011;24099;47.102;15.440;2023-05-07T05:33:07;1.42;;;1.33;;
3667;SDS011;24099;47.102;15.440;2023-05-07T05:35:36;1.45;;;1.35;;
3667;SDS011;24099;47.102;15.440;2023-05-07T05:38:10;1.70;;;1.60;;
3667;SDS011;24099;47.102;15.440;2023-05-07T05:40:39;1.38;;;1.27;;
3667;SDS011;24099;47.102;15.440;2023-05-07T05:43:06;2.15;;;1.58;;
3667;SDS011;24099;47.102;15.440;2023-05-07T05:45:36;8.75;;;1.70;;
3667;SDS011;24099;47.102;15.440;2023-05-07T05:48:05;1.30;;;1.20;;
3667;SDS011;24099;47.102;15.440;2023-05-07T05:50:33;3.80;;;1.35;;
3667;SDS011;24099;47.102;15.440;2023-05-07T05:53:04;3.13;;;1.55;;
3667;SDS011;24099;47.102;15.440;2023-05-07T05:55:32;1.50;;;1.40;;
3667;SDS011;24099;47.102;15.440;2023-05-07T05:58:00;1.65;;;1.45;;
3667;SDS011;24099;47.102;15.440;2023-05-07T06:00:31;2.15;;;1.50;;
3667;SDS011;24099;47.102;15.440;2023-05-07T06:03:02;1.60;;;1.40;;
3667;SDS011;24099;47.102;15.440;2023-05-07T06:05:30;1.55;;;1.40;;
3667;SDS011;24099;47.102;15.440;2023-05-07T06:07:57;1.30;;;1.20;;
3667;SDS011;24099;47.102;15.440;2023-05-07T06:10:31;1.95;;;1.50;;
3667;SDS011;24099;47.102;15.440;2023-05-07T06:12:59;1.70;;;1.40;;
3667;SDS011;24099;47.102;15.440;2023-05-07T06:15:28;1.55;;;1.45;;
3667;SDS011;24099;47.102;15.440;2023-05-07T06:18:02;5.55;;;1.58;;
3667;SDS011;24099;47.102;15.440;2023-05-07T06:20:34;2.45;;;1.83;;
3667;SDS011;24099;47.102;15.440;2023-05-07T06:23:04;1.65;;;1.33;;
3667;SDS011;24099;47.102;15.440;2023-05-07T06:25:34;2.05;;;1.50;;
3667;SDS011;24099;47.102;15.440;2023-05-07T06:28:03;2.10;;;1.50;;
3667;SDS011;24099;47.102;15.440;2023-05-07T06:30:34;1.45;;;1.35;;
3667;SDS011;24099;47.102;15.440;2023-05-07T06:33:01;1.58;;;1.48;;
3667;SDS011;24099;47.102;15.440;2023-05-07T06:35:29;2.15;;;1.63;;
3667;SDS011;24099;47.102;15.440;2023-05-07T06:37:57;1.83;;;1.40;;
3667;SDS011;24099;47.102;15.440;2023-05-07T06:40:27;3.53;;;1.58;;
3667;SDS011;24099;47.102;15.440;2023-05-07T06:42:59;2.25;;;1.17;;
3667;SDS011;24099;47.102;15.440;2023-05-07T06:45:46;1.83;;;1.38;;
3667;SDS011;24099;47.102;15.440;2023-05-07T06:48:14;1.90;;;1.42;;
3667;SDS011;24099;47.102;15.440;2023-05-07T06:50:52;1.27;;;1.17;;
3667;SDS011;24099;47.102;15.440;2023-05-07T06:53:22;1.50;;;1.40;;
3667;SDS011;24099;47.102;15.440;2023-05-07T06:55:52;1.80;;;1.67;;
3667;SDS011;24099;47.102;15.440;2023-05-07T06:58:21;1.73;;;1.60;;
3667;SDS011;24099;47.102;15.440;2023-05-07T07:00:50;3.63;;;1.80;;
3667;SDS011;24099;47.102;15.440;2023-05-07T07:03:17;1.70;;;1.50;;
3667;SDS011;24099;47.102;15.440;2023-05-07T07:05:46;1.80;;;1.65;;
3667;SDS011;24099;47.102;15.440;2023-05-07T07:08:13;1.58;;;1.48;;
3667;SDS011;24099;47.102;15.440;2023-05-07T07:10:46;1.70;;;1.30;;
3667;SDS011;24099;47.102;15.440;2023-05-07T07:13:14;3.63;;;1.63;;
3667;SDS011;24099;47.102;15.440;2023-05-07T07:15:43;2.30;;;1.60;;
3667;SDS011;24099;47.102;15.440;2023-05-07T07:18:11;2.85;;;1.92;;
3667;SDS011;24099;47.102;15.440;2023-05-07T07:20:39;1.73;;;1.63;;
3667;SDS011;24099;47.102;15.440;2023-05-07T07:23:08;2.30;;;1.80;;
3667;SDS011;24099;47.102;15.440;2023-05-07T07:25:35;3.28;;;1.65;;
3667;SDS011;24099;47.102;15.440;2023-05-07T07:28:04;3.25;;;1.60;;
3667;SDS011;24099;47.102;15.440;2023-05-07T07:30:32;2.22;;;1.73;;
3667;SDS011;24099;47.102;15.440;2023-05-07T07:33:02;1.77;;;1.60;;
3667;SDS011;24099;47.102;15.440;2023-05-07T07:35:34;3.13;;;1.83;;
3667;SDS011;24099;47.102;15.440;2023-05-07T07:38:04;4.07;;;2.15;;
3667;SDS011;24099;47.102;15.440;2023-05-07T07:40:31;5.25;;;2.35;;
3667;SDS011;24099;47.102;15.440;2023-05-07T07:43:03;2.75;;;2.25;;
3667;SDS011;24099;47.102;15.440;2023-05-07T07:45:32;3.13;;;2.10;;
3667;SDS011;24099;47.102;15.440;2023-05-07T07:48:00;3.08;;;2.47;;
3667;SDS011;24099;47.102;15.440;2023-05-07T07:50:33;2.22;;;1.92;;
3667;SDS011;24099;47.102;15.440;2023-05-07T07:53:01;2.40;;;2.20;;
3667;SDS011;24099;47.102;15.440;2023-05-07T07:55:29;1.73;;;1.63;;
3667;SDS011;24099;47.102;15.440;2023-05-07T07:57:59;2.53;;;1.52;;
3667;SDS011;24099;47.102;15.440;2023-05-07T08:00:27;1.83;;;1.40;;
3667;SDS011;24099;47.102;15.440;2023-05-07T08:02:56;2.40;;;1.40;;
3667;SDS011;24099;47.102;15.440;2023-05-07T08:05:29;2.22;;;1.77;;
3667;SDS011;24099;47.102;15.440;2023-05-07T08:07:59;5.65;;;1.63;;
3667;SDS011;24099;47.102;15.440;2023-05-07T08:10:31;1.90;;;1.65;;
3667;SDS011;24099;47.102;15.440;2023-05-07T08:13:05;2.17;;;1.77;;
3667;SDS011;24099;47.102;15.440;2023-05-07T08:15:35;3.63;;;2.17;;
3667;SDS011;24099;47.102;15.440;2023-05-07T08:18:03;5.43;;;2.30;;
3667;SDS011;24099;47.102;15.440;2023-05-07T08:20:33;1.70;;;1.60;;
3667;SDS011;24099;47.102;15.440;2023-05-07T08:23:06;5.88;;;1.70;;
3667;SDS011;24099;47.102;15.440;2023-05-07T08:25:33;1.63;;;1.52;;
3667;SDS011;24099;47.102;15.440;2023-05-07T08:28:04;5.22;;;2.08;;
3667;SDS011;24099;47.102;15.440;2023-05-07T08:30:32;6.05;;;1.33;;
3667;SDS011;24099;47.102;15.440;2023-05-07T08:33:00;2.25;;;1.30;;
3667;SDS011;24099;47.102;15.440;2023-05-07T08:35:27;2.72;;;1.77;;
3667;SDS011;24099;47.102;15.440;2023-05-07T08:37:56;2.35;;;1.70;;
3667;SDS011;24099;47.102;15.440;2023-05-07T08:40:25;1.50;;;1.40;;
3667;SDS011;24099;47.102;15.440;2023-05-07T08:42:55;3.47;;;1.50;;
3667;SDS011;24099;47.102;15.440;2023-05-07T08:45:24;2.42;;;1.38;;
3667;SDS011;24099;47.102;15.440;2023-05-07T08:47:55;2.28;;;1.67;;
3667;SDS011;24099;47.102;15.440;2023-05-07T08:50:31;1.60;;;1.40;;
3667;SDS011;24099;47.102;15.440;2023-05-07T08:53:06;2.55;;;1.70;;
3667;SDS011;24099;47.102;15.440;2023-05-07T08:55:34;1.58;;;1.48;;
3667;SDS011;24099;47.102;15.440;2023-05-07T08:58:03;1.48;;;1.38;;
3667;SDS011;24099;47.102;15.440;2023-05-07T09:00:36;3.45;;;1.67;;
3667;SDS011;24099;47.102;15.440;2023-05-07T09:03:04;3.67;;;2.10;;
3667;SDS011;24099;47.102;15.440;2023-05-07T09:05:34;1.70;;;1.60;;
3667;SDS011;24099;47.102;15.440;2023-05-07T09:08:07;1.50;;;1.40;;
3667;SDS011;24099;47.102;15.440;2023-05-07T09:10:37;3.03;;;1.50;;
3667;SDS011;24099;47.102;15.440;2023-05-07T09:13:05;1.90;;;1.70;;
3667;SDS011;24099;47.102;15.440;2023-05-07T09:15:33;1.60;;;1.40;;
3667;SDS011;24099;47.102;15.440;2023-05-07T09:18:01;1.55;;;1.45;;
3667;SDS011;24099;47.102;15.440;2023-05-07T09:20:31;2.95;;;1.48;;
3667;SDS011;24099;47.102;15.440;2023-05-07T09:23:00;1.25;;;1.15;;
3667;SDS011;24099;47.102;15.440;2023-05-07T09:25:31;3.40;;;1.52;;
3667;SDS011;24099;47.102;15.440;2023-05-07T09:28:07;1.48;;;1.38;;
3667;SDS011;24099;47.102;15.440;2023-05-07T09:30:36;1.58;;;1.30;;
3667;SDS011;24099;47.102;15.440;2023-05-07T09:33:06;1.40;;;1.27;;
3667;SDS011;24099;47.102;15.440;2023-05-07T09:35:38;2.92;;;1.50;;
3667;SDS011;24099;47.102;15.440;2023-05-07T09:38:11;1.48;;;1.38;;
3667;SDS011;24099;47.102;15.440;2023-05-07T09:40:42;1.15;;;1.08;;
3667;SDS011;24099;47.102;15.440;2023-05-07T09:43:13;1.83;;;1.52;;
3667;SDS011;24099;47.102;15.440;2023-05-07T09:45:47;3.70;;;1.98;;
3667;SDS011;24099;47.102;15.440;2023-05-07T09:48:18;2.20;;;1.20;;
3667;SDS011;24099;47.102;15.440;2023-05-07T09:50:49;3.00;;;1.40;;
3667;SDS011;24099;47.102;15.440;2023-05-07T09:53:25;2.15;;;1.60;;
3667;SDS011;24099;47.102;15.440;2023-05-07T09:55:56;1.85;;;1.35;;
3667;SDS011;24099;47.102;15.440;2023-05-07T09:58:25;2.08;;;1.38;;
3667;SDS011;24099;47.102;15.440;2023-05-07T10:00:56;1.45;;;1.30;;
3667;SDS011;24099;47.102;15.440;2023-05-07T10:03:25;1.95;;;1.40;;
3667;SDS011;24099;47.102;15.440;2023-05-07T10:06:01;1.38;;;1.20;;
3667;SDS011;24099;47.102;15.440;2023-05-07T10:08:30;1.60;;;1.33;;
3667;SDS011;24099;47.102;15.440;2023-05-07T10:11:01;1.55;;;1.10;;
3667;SDS011;24099;47.102;15.440;2023-05-07T10:13:31;2.63;;;1.23;;
3667;SDS011;24099;47.102;15.440;2023-05-07T10:16:06;1.83;;;1.30;;
3667;SDS011;24099;47.102;15.440;2023-05-07T10:18:40;1.45;;;1.10;;
3667;SDS011;24099;47.102;15.440;2023-05-07T10:21:16;1.17;;;0.93;;
3667;SDS011;24099;47.102;15.440;2023-05-07T10:23:48;1.30;;;1.20;;
3667;SDS011;24099;47.102;15.440;2023-05-07T10:26:20;0.88;;;0.88;;
3667;SDS011;24099;47.102;15.440;2023-05-07T10:28:54;0.95;;;0.95;;
3667;SDS011;24099;47.102;15.440;2023-05-07T10:31:38;1.10;;;1.00;;
3667;SDS011;24099;47.102;15.440;2023-05-07T10:34:20;1.67;;;0.90;;
3667;SDS011;24099;47.102;15.440;2023-05-07T10:36:51;0.90;;;0.90;;
3667;SDS011;24099;47.102;15.440;2023-05-07T10:39:21;1.42;;;0.90;;
3667;SDS011;24099;47.102;15.440;2023-05-07T10:41:51;1.48;;;1.10;;
3667;SDS011;24099;47.102;15.440;2023-05-07T10:44:25;1.00;;;0.80;;
3667;SDS011;24099;47.102;15.440;2023-05-07T10:49:35;0.98;;;0.98;;
3667;SDS011;24099;47.102;15.440;2023-05-07T10:52:11;1.45;;;1.00;;
3667;SDS011;24099;47.102;15.440;2023-05-07T10:58:23;1.48;;;1.13;;
3667;SDS011;24099;47.102;15.440;2023-05-07T11:00:59;2.53;;;1.00;;
3667;SDS011;24099;47.102;15.440;2023-05-07T11:03:33;1.02;;;0.90;;
3667;SDS011;24099;47.102;15.440;2023-05-07T11:06:08;1.13;;;0.90;;
3667;SDS011;24099;47.102;15.440;2023-05-07T11:09:00;0.90;;;0.90;;
3667;SDS011;24099;47.102;15.440;2023-05-07T11:11:46;1.60;;;1.00;;
3667;SDS011;24099;47.102;15.440;2023-05-07T11:14:44;1.35;;;1.20;;
3667;SDS011;24099;47.102;15.440;2023-05-07T11:17:17;1.30;;;1.05;;
3667;SDS011;24099;47.102;15.440;2023-05-07T11:19:52;0.80;;;0.80;;
3667;SDS011;24099;47.102;15.440;2023-05-07T11:22:37;3.90;;;0.90;;
3667;SDS011;24099;47.102;15.440;2023-05-07T11:25:31;1.15;;;1.05;;
3667;SDS011;24099;47.102;15.440;2023-05-07T11:28:14;1.20;;;0.93;;
3667;SDS011;24099;47.102;15.440;2023-05-07T11:30:51;1.10;;;1.00;;
3667;SDS011;24099;47.102;15.440;2023-05-07T11:33:20;0.98;;;0.90;;
3667;SDS011;24099;47.102;15.440;2023-05-07T11:35:52;1.20;;;1.10;;
3667;SDS011;24099;47.102;15.440;2023-05-07T11:38:23;1.15;;;0.93;;
3667;SDS011;24099;47.102;15.440;2023-05-07T11:40:52;1.95;;;1.15;;
3667;SDS011;24099;47.102;15.440;2023-05-07T11:43:21;1.88;;;1.02;;
3667;SDS011;24099;47.102;15.440;2023-05-07T11:45:49;0.98;;;0.88;;
3667;SDS011;24099;47.102;15.440;2023-05-07T11:48:20;2.05;;;0.90;;
3667;SDS011;24099;47.102;15.440;2023-05-07T11:50:51;1.00;;;0.90;;
3667;SDS011;24099;47.102;15.440;2023-05-07T11:53:27;1.08;;;0.90;;
3667;SDS011;24099;47.102;15.440;2023-05-07T11:56:05;0.90;;;0.90;;
3667;SDS011;24099;47.102;15.440;2023-05-07T11:58:34;1.08;;;0.98;;
3667;SDS011;24099;47.102;15.440;2023-05-07T12:01:03;0.98;;;0.98;;
3667;SDS011;24099;47.102;15.440;2023-05-07T12:03:34;1.08;;;0.98;;
3667;SDS011;24099;47.102;15.440;2023-05-07T12:06:02;2.15;;;1.20;;
3667;SDS011;24099;47.102;15.440;2023-05-07T12:08:35;0.90;;;0.90;;
3667;SDS011;24099;47.102;15.440;2023-05-07T12:11:07;1.65;;;1.05;;
3667;SDS011;24099;47.102;15.440;2023-05-07T12:13:36;1.95;;;0.80;;
3667;SDS011;24099;47.102;15.440;2023-05-07T12:16:10;0.63;;;0.63;;
3667;SDS011;24099;47.102;15.440;2023-05-07T12:18:38;0.82;;;0.82;;
3667;SDS011;24099;47.102;15.440;2023-05-07T12:21:08;0.80;;;0.80;;
3667;SDS011;24099;47.102;15.440;2023-05-07T12:23:37;1.08;;;0.85;;
3667;SDS011;24099;47.102;15.440;2023-05-07T12:26:09;0.60;;;0.60;;
3667;SDS011;24099;47.102;15.440;2023-05-07T12:28:37;1.75;;;0.95;;
3667;SDS011;24099;47.102;15.440;2023-05-07T12:31:05;0.90;;;0.90;;
3667;SDS011;24099;47.102;15.440;2023-05-07T12:33:35;1.42;;;0.90;;
3667;SDS011;24099;47.102;15.440;2023-05-07T12:36:04;1.25;;;0.88;;
3667;SDS011;24099;47.102;15.440;2023-05-07T12:38:37;1.52;;;0.80;;
3667;SDS011;24099;47.102;15.440;2023-05-07T12:41:06;0.80;;;0.80;;
3667;SDS011;24099;47.102;15.440;2023-05-07T12:43:35;0.95;;;0.82;;
3667;SDS011;24099;47.102;15.440;2023-05-07T12:46:04;1.60;;;1.10;;
3667;SDS011;24099;47.102;15.440;2023-05-07T12:48:32;0.90;;;0.80;;
3667;SDS011;24099;47.102;15.440;2023-05-07T12:51:02;3.13;;;0.93;;
3667;SDS011;24099;47.102;15.440;2023-05-07T12:53:31;1.95;;;1.02;;
3667;SDS011;24099;47.102;15.440;2023-05-07T12:55:59;2.67;;;0.90;;
3667;SDS011;24099;47.102;15.440;2023-05-07T12:58:27;1.02;;;0.80;;
3667;SDS011;24099;47.102;15.440;2023-05-07T13:00:56;1.05;;;0.90;;
3667;SDS011;24099;47.102;15.440;2023-05-07T13:03:26;1.15;;;0.90;;
3667;SDS011;24099;47.102;15.440;2023-05-07T13:05:57;1.05;;;0.80;;
3667;SDS011;24099;47.102;15.440;2023-05-07T13:08:27;1.48;;;1.00;;
3667;SDS011;24099;47.102;15.440;2023-05-07T13:10:58;0.80;;;0.80;;
3667;SDS011;24099;47.102;15.440;2023-05-07T13:13:28;0.55;;;0.55;;
3667;SDS011;24099;47.102;15.440;2023-05-07T13:15:57;2.40;;;0.50;;
3667;SDS011;24099;47.102;15.440;2023-05-07T13:18:25;0.75;;;0.75;;
3667;SDS011;24099;47.102;15.440;2023-05-07T13:20:53;0.82;;;0.82;;
3667;SDS011;24099;47.102;15.440;2023-05-07T13:23:23;5.40;;;1.23;;
3667;SDS011;24099;47.102;15.440;2023-05-07T13:25:51;0.90;;;0.90;;
3667;SDS011;24099;47.102;15.440;2023-05-07T13:28:19;0.95;;;0.95;;
3667;SDS011;24099;47.102;15.440;2023-05-07T13:30:47;1.20;;;1.10;;
3667;SDS011;24099;47.102;15.440;2023-05-07T13:33:17;2.60;;;1.40;;
3667;SDS011;24099;47.102;15.440;2023-05-07T13:35:45;1.90;;;1.50;;
3667;SDS011;24099;47.102;15.440;2023-05-07T13:38:13;1.50;;;1.40;;
3667;SDS011;24099;47.102;15.440;2023-05-07T13:40:42;2.65;;;1.70;;
3667;SDS011;24099;47.102;15.440;2023-05-07T13:43:10;2.28;;;1.98;;
3667;SDS011;24099;47.102;15.440;2023-05-07T13:45:38;2.90;;;1.90;;
3667;SDS011;24099;47.102;15.440;2023-05-07T13:48:05;2.65;;;1.95;;
3667;SDS011;24099;47.102;15.440;2023-05-07T13:50:33;3.35;;;1.70;;
3667;SDS011;24099;47.102;15.440;2023-05-07T13:53:01;1.90;;;1.70;;
3667;SDS011;24099;47.102;15.440;2023-05-07T13:55:30;2.53;;;2.13;;
3667;SDS011;24099;47.102;15.440;2023-05-07T13:58:01;3.33;;;2.10;;
3667;SDS011;24099;47.102;15.440;2023-05-07T14:00:29;2.85;;;1.80;;
3667;SDS011;24099;47.102;15.440;2023-05-07T14:02:57;4.35;;;1.98;;
3667;SDS011;24099;47.102;15.440;2023-05-07T14:05:25;2.05;;;1.85;;
3667;SDS011;24099;47.102;15.440;2023-05-07T14:07:53;2.85;;;2.17;;
3667;SDS011;24099;47.102;15.440;2023-05-07T14:10:22;2.33;;;1.92;;
3667;SDS011;24099;47.102;15.440;2023-05-07T14:12:51;3.00;;;2.03;;
3667;SDS011;24099;47.102;15.440;2023-05-07T14:15:21;2.33;;;1.88;;
3667;SDS011;24099;47.102;15.440;2023-05-07T14:17:48;3.03;;;1.90;;
3667;SDS011;24099;47.102;15.440;2023-05-07T14:20:16;2.97;;;1.83;;
3667;SDS011;24099;47.102;15.440;2023-05-07T14:22:46;2.75;;;1.92;;
3667;SDS011;24099;47.102;15.440;2023-05-07T14:25:14;2.03;;;1.65;;
3667;SDS011;24099;47.102;15.440;2023-05-07T14:27:48;2.25;;;1.80;;
3667;SDS011;24099;47.102;15.440;2023-05-07T14:30:15;2.28;;;1.67;;
3667;SDS011;24099;47.102;15.440;2023-05-07T14:32:44;2.05;;;1.80;;
3667;SDS011;24099;47.102;15.440;2023-05-07T14:35:12;2.00;;;1.40;;
3667;SDS011;24099;47.102;15.440;2023-05-07T14:37:40;1.63;;;1.42;;
3667;SDS011;24099;47.102;15.440;2023-05-07T14:40:08;1.80;;;1.52;;
3667;SDS011;24099;47.102;15.440;2023-05-07T14:42:36;2.75;;;1.50;;
3667;SDS011;24099;47.102;15.440;2023-05-07T14:45:05;1.48;;;1.38;;
3667;SDS011;24099;47.102;15.440;2023-05-07T14:47:33;1.80;;;1.50;;
3667;SDS011;24099;47.102;15.440;2023-05-07T14:50:02;1.48;;;1.38;;
3667;SDS011;24099;47.102;15.440;2023-05-07T14:52:30;2.10;;;1.60;;
3667;SDS011;24099;47.102;15.440;2023-05-07T14:54:58;1.88;;;1.77;;
3667;SDS011;24099;47.102;15.440;2023-05-07T14:57:26;2.33;;;1.60;;
3667;SDS011;24099;47.102;15.440;2023-05-07T14:59:54;4.07;;;1.85;;
3667;SDS011;24099;47.102;15.440;2023-05-07T15:02:21;3.20;;;1.90;;
3667;SDS011;24099;47.102;15.440;2023-05-07T15:04:55;2.35;;;1.85;;
3667;SDS011;24099;47.102;15.440;2023-05-07T15:07:24;2.45;;;1.80;;
3667;SDS011;24099;47.102;15.440;2023-05-07T15:09:52;1.75;;;1.65;;
3667;SDS011;24099;47.102;15.440;2023-05-07T15:12:20;4.35;;;1.83;;
3667;SDS011;24099;47.102;15.440;2023-05-07T15:14:47;2.47;;;1.83;;